AAL2690 KLAS-KLAX
Flight info
| Callsign | AAL2690 |
|---|---|
| Flight time | N/A |
| Altitude | 28000 |
| Route | RADYR2 BLAQQ SHTNR ANJLL4 |
| Aircraft | B738/M-SDE2E3FGHIRWXY/LB1 |
Departure
| Time | 2026-04-30 22:05 |
|---|---|
| Airport | Harry Reid International Airport (KLAS) |
Arrival
| Time | N/A |
|---|---|
| Airport | Los Angeles International Airport (KLAX) |
| Time | Latitude | Longitude | Altitude | Speed | Heading |
|---|---|---|---|---|---|
| 2026-04-30 21:45 | 36.08228 | -115.15102 | 2130 ft | 0 kts | 14° |
| 2026-04-30 21:53 | 36.08228 | -115.15103 | 2130 ft | 1 kts | 14° |
| 2026-04-30 21:53 | 36.08213 | -115.15107 | 2131 ft | 2 kts | 14° |
| 2026-04-30 21:54 | 36.08197 | -115.15113 | 2130 ft | 2 kts | 15° |
| 2026-04-30 21:54 | 36.08181 | -115.15118 | 2132 ft | 2 kts | 15° |
| 2026-04-30 21:54 | 36.08165 | -115.15123 | 2133 ft | 2 kts | 15° |
| 2026-04-30 21:54 | 36.08149 | -115.15129 | 2133 ft | 2 kts | 5° |
| 2026-04-30 21:55 | 36.08133 | -115.15126 | 2134 ft | 2 kts | 326° |
| 2026-04-30 21:55 | 36.08122 | -115.15110 | 2137 ft | 2 kts | 271° |
| 2026-04-30 21:55 | 36.08124 | -115.15098 | 2135 ft | 1 kts | 242° |
| 2026-04-30 21:58 | 36.08117 | -115.15108 | 2137 ft | 2 kts | 229° |
| 2026-04-30 21:58 | 36.08104 | -115.15111 | 2138 ft | 2 kts | 186° |
| 2026-04-30 21:59 | 36.08089 | -115.15113 | 2139 ft | 2 kts | 186° |
| 2026-04-30 21:59 | 36.08064 | -115.15114 | 2141 ft | 6 kts | 179° |
| 2026-04-30 21:59 | 36.07996 | -115.15113 | 2144 ft | 13 kts | 179° |
| 2026-04-30 22:00 | 36.07804 | -115.15253 | 2154 ft | 22 kts | 269° |
| 2026-04-30 22:00 | 36.07804 | -115.15727 | 2163 ft | 31 kts | 270° |
| 2026-04-30 22:00 | 36.07804 | -115.15989 | 2166 ft | 31 kts | 270° |
| 2026-04-30 22:01 | 36.07777 | -115.16123 | 2162 ft | 7 kts | 204° |
| 2026-04-30 22:01 | 36.07753 | -115.16126 | 2161 ft | 2 kts | 182° |
| 2026-04-30 22:01 | 36.07743 | -115.16127 | 2163 ft | 0 kts | 183° |
| 2026-04-30 22:03 | 36.07721 | -115.16128 | 2159 ft | 6 kts | 181° |
| 2026-04-30 22:03 | 36.07663 | -115.16122 | 2167 ft | 10 kts | 160° |
| 2026-04-30 22:04 | 36.07639 | -115.16040 | 2166 ft | 12 kts | 90° |
| 2026-04-30 22:04 | 36.07639 | -115.15830 | 2159 ft | 53 kts | 90° |
| 2026-04-30 22:04 | 36.07667 | -115.13758 | 2153 ft | 177 kts | 86° |
| 2026-04-30 22:05 | 36.07689 | -115.12193 | 2887 ft | 184 kts | 88° |
| 2026-04-30 22:05 | 36.07700 | -115.10651 | 3883 ft | 169 kts | 87° |
| 2026-04-30 22:05 | 36.07698 | -115.09221 | 4782 ft | 172 kts | 88° |
| 2026-04-30 22:05 | 36.07652 | -115.07616 | 5228 ft | 200 kts | 94° |
| 2026-04-30 22:06 | 36.07341 | -115.05864 | 5606 ft | 219 kts | 99° |
| 2026-04-30 22:06 | 36.06617 | -115.02030 | 6920 ft | 214 kts | 99° |
| 2026-04-30 22:06 | 36.06287 | -115.00239 | 7711 ft | 208 kts | 99° |
| 2026-04-30 22:07 | 36.05995 | -114.98532 | 8457 ft | 209 kts | 96° |
| 2026-04-30 22:07 | 36.05731 | -114.96612 | 8539 ft | 242 kts | 96° |
| 2026-04-30 22:07 | 36.05419 | -114.94463 | 8754 ft | 270 kts | 97° |
| 2026-04-30 22:07 | 36.04920 | -114.92163 | 9499 ft | 280 kts | 115° |
| 2026-04-30 22:08 | 36.03598 | -114.90373 | 10268 ft | 291 kts | 147° |
| 2026-04-30 22:08 | 36.01745 | -114.89404 | 11145 ft | 286 kts | 163° |
| 2026-04-30 22:08 | 35.99850 | -114.88891 | 12306 ft | 276 kts | 177° |
| 2026-04-30 22:08 | 35.97929 | -114.89155 | 12721 ft | 292 kts | 201° |
| 2026-04-30 22:09 | 35.96124 | -114.90459 | 12987 ft | 307 kts | 228° |
| 2026-04-30 22:09 | 35.94793 | -114.92549 | 13540 ft | 316 kts | 231° |
| 2026-04-30 22:09 | 35.93151 | -114.94455 | 14057 ft | 332 kts | 223° |
| 2026-04-30 22:09 | 35.91335 | -114.96343 | 14286 ft | 352 kts | 223° |
| 2026-04-30 22:10 | 35.89458 | -114.98359 | 14834 ft | 359 kts | 227° |
| 2026-04-30 22:10 | 35.88068 | -115.00855 | 15565 ft | 354 kts | 249° |
| 2026-04-30 22:10 | 35.87420 | -115.03751 | 16381 ft | 353 kts | 262° |
| 2026-04-30 22:10 | 35.86983 | -115.06758 | 17037 ft | 358 kts | 263° |
| 2026-04-30 22:11 | 35.86125 | -115.12906 | 18338 ft | 368 kts | 262° |
| 2026-04-30 22:11 | 35.85668 | -115.16012 | 18942 ft | 371 kts | 262° |
| 2026-04-30 22:11 | 35.85190 | -115.19174 | 19532 ft | 374 kts | 262° |
| 2026-04-30 22:12 | 35.84716 | -115.22284 | 20117 ft | 377 kts | 262° |
| 2026-04-30 22:12 | 35.83912 | -115.25399 | 20689 ft | 386 kts | 244° |
| 2026-04-30 22:12 | 35.82274 | -115.28052 | 21265 ft | 395 kts | 226° |
| 2026-04-30 22:12 | 35.79993 | -115.29960 | 21789 ft | 405 kts | 207° |
| 2026-04-30 22:13 | 35.77332 | -115.31263 | 22331 ft | 410 kts | 203° |
| 2026-04-30 22:13 | 35.74655 | -115.32460 | 22843 ft | 415 kts | 202° |
| 2026-04-30 22:13 | 35.71909 | -115.33679 | 23338 ft | 419 kts | 202° |
| 2026-04-30 22:13 | 35.69176 | -115.34918 | 23840 ft | 420 kts | 203° |